Time;durP1;ratioP1;P1;durP2;ratioP2;P2;SDS_P1;SDS_P2;PMS_P1;PMS_P2;Temp;Humidity;BMP_temperature;BMP_pressure;BME280_temperature;BME280_humidity;BME280_pressure;Samples;Min_cycle;Max_cycle;Signal;HPM_P1;HPM_P2
2022/10/30 00:01:54;;;;;;;7.30;2.70;;;;;;;13.63;67.48;93358.06;4856939;29;20041;-75
2022/10/30 00:04:20;;;;;;;10.05;2.05;;;;;;;13.62;67.03;93367.00;4857167;29;20041;-76
2022/10/30 00:06:45;;;;;;;7.13;2.08;;;;;;;13.60;67.09;93363.88;4872435;29;20048;-75
2022/10/30 00:09:11;;;;;;;11.90;2.60;;;;;;;13.60;67.55;93363.88;4857947;29;20060;-75
2022/10/30 00:11:36;;;;;;;9.48;2.50;;;;;;;13.57;68.28;93349.44;4856928;29;20128;-75
2022/10/30 00:14:02;;;;;;;13.43;2.47;;;;;;;13.55;68.69;93356.84;4859465;29;20026;-75
2022/10/30 00:16:27;;;;;;;10.27;2.78;;;;;;;13.56;69.41;93357.63;4861434;29;20098;-75
2022/10/30 00:18:53;;;;;;;10.60;3.03;;;;;;;13.56;69.97;93353.16;4860318;29;20045;-76
2022/10/30 00:21:19;;;;;;;5.68;2.63;;;;;;;13.56;70.23;93347.88;4860227;29;20572;-76
2022/10/30 00:23:47;;;;;;;10.95;2.53;;;;;;;13.57;70.56;93348.66;4875443;29;20041;-76
2022/10/30 00:26:13;;;;;;;8.02;2.42;;;;;;;13.56;70.96;93355.00;4860201;29;20045;-75
2022/10/30 00:28:38;;;;;;;8.15;2.47;;;;;;;13.57;71.40;93348.66;4875557;29;20132;-75
2022/10/30 00:31:04;;;;;;;10.77;2.88;;;;;;;13.54;71.67;93348.16;4861272;29;20050;-75
2022/10/30 00:33:30;;;;;;;10.75;2.60;;;;;;;13.53;71.71;93351.06;4860998;29;20058;-75
2022/10/30 00:35:56;;;;;;;6.68;2.42;;;;;;;13.52;72.07;93352.16;4859981;29;20448;-76
2022/10/30 00:38:22;;;;;;;9.00;2.25;;;;;;;13.51;72.14;93348.75;4850046;29;20038;-76
2022/10/30 00:40:48;;;;;;;14.10;2.67;;;;;;;13.50;72.10;93349.78;4841442;29;20081;-75
2022/10/30 00:43:37;;;;;;;10.32;2.50;;;;;;;13.51;72.40;93355.84;4842580;29;20508;-75
2022/10/30 00:46:26;;;;;;;9.43;2.40;;;;;;;13.49;72.11;93348.25;4842342;29;20106;-75
2022/10/30 00:49:08;;;;;;;12.75;2.40;;;;;;;13.48;72.25;93349.28;4842727;29;20148;-75
2022/10/30 00:51:36;;;;;;;7.90;2.00;;;;;;;13.47;72.39;93347.75;4826017;29;20090;-76
2022/10/30 00:54:04;;;;;;;8.52;2.50;;;;;;;13.48;72.40;93348.50;4842606;29;20025;-75
2022/10/30 00:56:30;;;;;;;8.98;2.55;;;;;;;13.50;72.25;93347.16;4842575;29;20084;-77
2022/10/30 00:59:04;;;;;;;10.68;2.63;;;;;;;13.50;72.38;93341.13;4856751;29;20038;-78
2022/10/30 01:01:35;;;;;;;12.95;2.50;;;;;;;13.49;72.21;93337.72;4840931;29;20046;-76
2022/10/30 01:04:04;;;;;;;11.93;2.20;;;;;;;13.51;72.33;93340.84;4842331;29;20036;-76
2022/10/30 01:06:34;;;;;;;9.25;2.97;;;;;;;13.49;72.18;93331.69;4850087;29;20057;-76
2022/10/30 01:09:01;;;;;;;10.65;2.65;;;;;;;13.50;72.53;93334.00;4874692;29;20397;-76
2022/10/30 01:11:27;;;;;;;10.48;2.78;;;;;;;13.50;72.64;93333.22;4843905;29;20093;-75
2022/10/30 01:13:55;;;;;;;8.13;2.30;;;;;;;13.49;72.62;93331.69;4874495;29;20029;-76
2022/10/30 01:16:32;;;;;;;7.50;2.50;;;;;;;13.45;72.77;93326.19;4859165;29;20509;-75
2022/10/30 01:19:15;;;;;;;14.32;2.75;;;;;;;13.44;72.99;93323.84;4874647;29;20033;-76
2022/10/30 01:21:56;;;;;;;9.38;2.65;;;;;;;13.43;72.63;93325.69;4874500;29;20041;-75
2022/10/30 01:24:28;;;;;;;7.65;2.78;;;;;;;13.41;72.47;93319.94;4860105;29;20049;-76
2022/10/30 01:27:08;;;;;;;9.27;2.90;;;;;;;13.41;72.45;93319.94;4859713;29;20061;-76
2022/10/30 01:29:55;;;;;;;12.68;2.28;;;;;;;13.40;72.25;93315.75;4874332;29;20789;-76
2022/10/30 01:32:49;;;;;;;10.90;2.70;;;;;;;13.39;72.40;93319.44;4874303;29;20040;-76
2022/10/30 01:35:31;;;;;;;10.07;2.65;;;;;;;13.39;72.45;93319.44;4874461;29;20462;-76
2022/10/30 01:38:05;;;;;;;9.77;2.72;;;;;;;13.38;72.31;93317.88;4874193;29;20033;-76
2022/10/30 01:40:32;;;;;;;11.02;2.45;;;;;;;13.37;72.27;93316.28;4873159;29;20037;-76
2022/10/30 01:42:58;;;;;;;13.63;2.65;;;;;;;13.39;72.02;93314.16;4874138;29;20034;-76
2022/10/30 01:45:46;;;;;;;9.60;2.60;;;;;;;13.39;71.80;93321.28;4858524;29;20057;-76
2022/10/30 01:48:39;;;;;;;9.32;2.67;;;;;;;13.39;71.59;93316.78;4858599;29;20416;-77
2022/10/30 01:51:31;;;;;;;10.20;2.30;;;;;;;13.39;71.21;93314.16;4874056;29;20026;-76
2022/10/30 01:54:21;;;;;;;15.13;2.50;;;;;;;13.41;70.74;93309.41;4859717;29;20069;-76
2022/10/30 01:56:47;;;;;;;10.85;2.53;;;;;;;13.40;70.72;93309.72;4857599;29;20037;-76
2022/10/30 01:59:23;;;;;;;10.05;2.50;;;;;;;13.39;70.45;93311.53;4858647;29;20038;-76
2022/10/30 02:01:49;;;;;;;7.97;2.50;;;;;;;13.38;70.02;93315.25;4873706;29;20081;-75
2022/10/30 02:04:15;;;;;;;8.45;2.22;;;;;;;13.33;70.99;93308.19;4859732;29;20049;-76
2022/10/30 02:06:41;;;;;;;10.55;2.40;;;;;;;13.29;70.95;93309.06;4858321;29;20052;-76
2022/10/30 02:09:08;;;;;;;9.52;2.40;;;;;;;13.25;71.14;93313.28;4858236;29;20049;-76
2022/10/30 02:11:37;;;;;;;9.88;2.50;;;;;;;13.24;71.56;93314.31;4858282;29;20034;-76
2022/10/30 02:14:06;;;;;;;12.77;2.30;;;;;;;13.23;71.58;93312.78;4857238;29;20524;-76
2022/10/30 02:16:36;;;;;;;10.45;2.50;;;;;;;13.22;71.59;93303.34;4873591;29;20104;-75
2022/10/30 02:19:02;;;;;;;15.20;2.65;;;;;;;13.22;72.03;93311.22;4858052;29;20036;-76
2022/10/30 02:21:28;;;;;;;9.98;2.60;;;;;;;13.22;72.11;93306.75;4858167;29;20029;-76
2022/10/30 02:23:53;;;;;;;12.00;2.92;;;;;;;13.21;71.94;93307.00;4859442;29;20045;-76
2022/10/30 02:26:20;;;;;;;10.27;2.28;;;;;;;13.22;71.98;93305.97;4842839;29;20105;-75
2022/10/30 02:28:45;;;;;;;8.73;2.47;;;;;;;13.20;72.14;93303.59;4857943;29;20041;-75
2022/10/30 02:31:11;;;;;;;6.97;2.30;;;;;;;13.20;72.42;93302.81;4859026;29;20037;-75
2022/10/30 02:33:44;;;;;;;12.82;2.78;;;;;;;13.18;72.39;93289.19;4873567;29;20384;-75
2022/10/30 02:36:10;;;;;;;8.45;2.40;;;;;;;13.18;71.96;93299.69;4859012;29;20041;-75
2022/10/30 02:38:36;;;;;;;11.90;2.55;;;;;;;13.19;71.50;93291.50;4860861;29;20136;-75
2022/10/30 02:41:01;;;;;;;9.55;2.45;;;;;;;13.19;70.97;93296.00;4854778;29;20050;-75
2022/10/30 02:43:27;;;;;;;14.93;2.55;;;;;;;13.19;71.14;93288.88;4854664;29;20053;-75
2022/10/30 02:45:54;;;;;;;9.65;2.45;;;;;;;13.20;71.48;93281.78;4854510;29;20140;-75
2022/10/30 02:48:19;;;;;;;8.73;2.45;;;;;;;13.18;71.33;93283.91;4862223;29;20539;-77
2022/10/30 02:50:46;;;;;;;11.98;2.60;;;;;;;13.18;71.17;93281.28;4840476;29;20053;-75
2022/10/30 02:53:12;;;;;;;9.82;2.45;;;;;;;13.17;71.08;93279.72;4857618;29;20037;-75
2022/10/30 02:55:38;;;;;;;11.77;2.33;;;;;;;13.17;70.91;93282.34;4842217;29;20408;-76
2022/10/30 02:58:03;;;;;;;9.23;2.50;;;;;;;13.16;70.71;93286.06;4872879;29;20076;-76
2022/10/30 03:00:30;;;;;;;11.10;2.67;;;;;;;13.15;71.14;93273.94;4842123;29;20129;-76
2022/10/30 03:02:56;;;;;;;16.15;2.75;;;;;;;13.15;71.38;93279.22;4857662;29;20038;-76
2022/10/30 03:05:22;;;;;;;10.60;2.55;;;;;;;13.12;72.20;93276.09;4857088;29;20041;-76
2022/10/30 03:07:48;;;;;;;9.65;2.67;;;;;;;13.07;72.37;93273.53;4858672;29;20037;-76
2022/10/30 03:10:14;;;;;;;11.80;2.78;;;;;;;13.05;72.97;93269.63;4857381;29;20048;-76
2022/10/30 03:12:39;;;;;;;15.60;2.90;;;;;;;13.03;73.22;93275.16;4857348;29;20568;-76
2022/10/30 03:15:05;;;;;;;9.15;2.40;;;;;;;13.03;73.13;93266.47;4872886;29;20036;-76
2022/10/30 03:17:31;;;;;;;11.40;2.58;;;;;;;13.04;72.97;93266.22;4857582;29;20037;-75
2022/10/30 03:19:57;;;;;;;11.27;2.80;;;;;;;13.05;72.85;93259.09;4858497;29;20041;-75
2022/10/30 03:22:22;;;;;;;13.35;2.50;;;;;;;13.07;72.57;93260.38;4872468;29;20042;-75
2022/10/30 03:24:48;;;;;;;8.93;3.13;;;;;;;13.08;72.93;93267.22;4858478;29;20405;-76
2022/10/30 03:27:13;;;;;;;8.45;2.00;;;;;;;13.06;73.25;93265.91;4841869;29;20065;-75
2022/10/30 03:29:39;;;;;;;10.00;2.60;;;;;;;13.03;73.37;93267.25;4841928;29;20044;-75
2022/10/30 03:32:08;;;;;;;10.82;2.90;;;;;;;13.01;73.54;93265.97;4872789;29;20069;-75
2022/10/30 03:34:41;;;;;;;12.50;2.50;;;;;;;12.99;73.52;93265.47;4842808;29;20045;-75
2022/10/30 03:37:07;;;;;;;9.00;2.30;;;;;;;12.98;73.02;93275.22;4872490;29;20419;-75
2022/10/30 03:39:33;;;;;;;8.75;2.30;;;;;;;12.97;72.59;93272.84;4856855;29;20040;-75
2022/10/30 03:41:58;;;;;;;8.50;2.17;;;;;;;12.96;72.74;93272.09;4857099;29;20487;-75
2022/10/30 03:44:24;;;;;;;9.82;2.55;;;;;;;12.96;72.34;93277.34;4872396;29;20519;-75
2022/10/30 03:46:50;;;;;;;10.93;2.40;;;;;;;12.98;72.84;93283.09;4841870;29;20186;-76
2022/10/30 03:49:25;;;;;;;21.15;3.22;;;;;;;12.99;72.69;93283.88;4874527;29;20504;-75
2022/10/30 03:51:52;;;;;;;9.40;2.47;;;;;;;12.97;72.58;93275.47;4876101;29;20076;-75
2022/10/30 03:54:18;;;;;;;17.63;3.22;;;;;;;12.96;72.44;93276.56;4860614;29;20552;-75
2022/10/30 03:56:44;;;;;;;9.27;2.20;;;;;;;12.94;71.85;93276.84;4876122;29;20045;-75
2022/10/30 03:59:13;;;;;;;13.95;2.53;;;;;;;12.94;71.70;93279.47;4860396;29;20045;-75
2022/10/30 04:01:40;;;;;;;10.55;2.63;;;;;;;12.96;71.63;93281.81;4860393;29;20044;-75
2022/10/30 04:04:05;;;;;;;15.13;2.80;;;;;;;12.97;71.29;93283.38;4860349;29;20029;-75
2022/10/30 04:06:31;;;;;;;8.68;2.42;;;;;;;12.96;71.15;93287.06;4844921;29;20105;-76
2022/10/30 04:08:57;;;;;;;10.63;2.95;;;;;;;12.96;71.21;93282.59;4860255;29;20045;-75
2022/10/30 04:11:23;;;;;;;15.70;2.90;;;;;;;12.94;70.59;93284.72;4845096;29;20033;-75
2022/10/30 04:13:48;;;;;;;14.48;2.40;;;;;;;12.93;69.81;93283.16;4861391;29;20560;-76
2022/10/30 04:16:14;;;;;;;16.35;2.85;;;;;;;12.92;69.72;93284.22;4875857;29;20124;-75
2022/10/30 04:18:40;;;;;;;16.38;2.75;;;;;;;12.91;69.72;93290.53;4844949;29;20060;-75
2022/10/30 04:21:06;;;;;;;8.82;2.38;;;;;;;12.88;69.74;93286.63;4875435;29;20500;-75
2022/10/30 04:23:33;;;;;;;11.63;2.38;;;;;;;12.87;69.40;93289.53;4875491;29;20101;-75
2022/10/30 04:26:00;;;;;;;12.10;3.00;;;;;;;12.87;69.41;93292.16;4844712;29;20033;-75
2022/10/30 04:28:26;;;;;;;7.78;2.60;;;;;;;12.86;69.47;93294.00;4860170;29;20041;-77
2022/10/30 04:30:52;;;;;;;9.57;2.58;;;;;;;12.87;69.43;93286.91;4875369;29;20385;-75
2022/10/30 04:33:18;;;;;;;13.95;2.63;;;;;;;12.87;69.50;93289.53;4875498;29;20088;-75
2022/10/30 04:35:44;;;;;;;15.30;3.22;;;;;;;12.85;69.58;93287.19;4844654;29;20516;-75
2022/10/30 04:38:18;;;;;;;16.88;2.42;;;;;;;12.84;69.86;93292.72;4851542;29;20042;-75
2022/10/30 04:40:44;;;;;;;11.05;2.85;;;;;;;12.81;69.91;93288.00;4841461;29;20060;-75
2022/10/30 04:43:12;;;;;;;12.98;2.67;;;;;;;12.81;69.98;93288.00;4841509;29;20054;-76
2022/10/30 04:45:39;;;;;;;18.13;4.07;;;;;;;12.80;69.87;93291.72;4841242;29;20528;-75
2022/10/30 04:48:14;;;;;;;11.98;2.78;;;;;;;12.80;69.83;93289.09;4855029;29;20038;-76
2022/10/30 04:50:42;;;;;;;13.50;2.88;;;;;;;12.81;70.00;93285.38;4858044;29;20408;-75
2022/10/30 04:53:13;;;;;;;12.23;2.50;;;;;;;12.83;69.75;93288.53;4842462;29;20117;-75
2022/10/30 04:55:39;;;;;;;8.68;2.50;;;;;;;12.84;69.59;93287.47;4856652;29;20547;-75
2022/10/30 04:58:07;;;;;;;11.98;2.63;;;;;;;12.82;69.57;93284.34;4856423;29;20038;-75
2022/10/30 05:00:35;;;;;;;11.95;2.65;;;;;;;12.83;69.70;93283.25;4839998;29;20038;-75
2022/10/30 05:03:19;;;;;;;9.73;3.00;;;;;;;12.81;69.66;93280.13;4842164;29;20068;-75
2022/10/30 05:05:47;;;;;;;10.75;2.47;;;;;;;12.80;69.64;93284.63;4859130;29;20041;-75
2022/10/30 05:08:13;;;;;;;9.85;2.38;;;;;;;12.78;69.65;93286.72;4874875;29;20033;-75
2022/10/30 05:10:39;;;;;;;8.18;2.40;;;;;;;12.76;70.33;93283.59;4859631;29;20505;-75
2022/10/30 05:13:05;;;;;;;14.60;2.95;;;;;;;12.76;70.57;93277.56;4859157;29;20065;-76
2022/10/30 05:15:30;;;;;;;10.95;2.38;;;;;;;12.74;70.52;93284.94;4859165;29;20508;-75
2022/10/30 05:17:56;;;;;;;6.43;1.98;;;;;;;12.72;70.56;93272.09;4843880;29;20045;-75
2022/10/30 05:20:22;;;;;;;15.07;3.15;;;;;;;12.73;70.72;93272.88;4843653;29;20128;-75
2022/10/30 05:22:55;;;;;;;9.63;2.35;;;;;;;12.76;70.68;93267.84;4860261;29;20046;-75
2022/10/30 05:25:21;;;;;;;9.80;2.58;;;;;;;12.77;70.80;93279.16;4874546;29;20435;-76
2022/10/30 05:27:46;;;;;;;14.82;2.92;;;;;;;12.78;70.89;93270.19;4874381;29;20088;-75
2022/10/30 05:30:12;;;;;;;12.90;2.53;;;;;;;12.79;70.89;93271.75;4858809;29;20049;-75
2022/10/30 05:32:38;;;;;;;10.63;2.60;;;;;;;12.77;70.89;93269.41;4874484;29;20045;-75
2022/10/30 05:35:04;;;;;;;13.98;2.97;;;;;;;12.76;71.12;93270.47;4874332;29;20057;-75
2022/10/30 05:37:29;;;;;;;15.75;3.17;;;;;;;12.74;71.84;93269.19;4870620;29;20038;-75
2022/10/30 05:39:56;;;;;;;11.68;3.35;;;;;;;12.70;72.12;93263.72;4838106;29;20068;-75
2022/10/30 05:42:24;;;;;;;14.27;3.42;;;;;;;12.68;72.64;93265.84;4843304;29;20053;-75
2022/10/30 05:44:51;;;;;;;12.13;2.88;;;;;;;12.67;72.73;93264.25;4869178;29;20062;-75
2022/10/30 05:47:16;;;;;;;8.32;2.33;;;;;;;12.66;73.17;93262.72;4852089;29;20072;-75
2022/10/30 05:49:46;;;;;;;13.60;3.20;;;;;;;12.65;73.04;93272.44;4854757;29;20034;-75
2022/10/30 05:52:15;;;;;;;10.68;2.70;;;;;;;12.65;72.95;93277.69;4842239;29;20503;-76
2022/10/30 05:54:41;;;;;;;14.88;3.53;;;;;;;12.68;72.51;93264.00;4843542;29;20052;-76
2022/10/30 05:57:19;;;;;;;8.68;2.20;;;;;;;12.71;72.15;93263.44;4845789;29;20042;-75
2022/10/30 05:59:44;;;;;;;18.77;3.35;;;;;;;12.76;71.89;93264.44;4851850;29;20463;-76
2022/10/30 06:02:10;;;;;;;8.50;2.45;;;;;;;12.78;72.50;93265.72;4846188;29;20104;-76
2022/10/30 06:04:36;;;;;;;14.85;2.95;;;;;;;12.78;72.39;93262.31;4859780;29;20522;-76
2022/10/30 06:07:06;;;;;;;9.70;3.10;;;;;;;12.81;72.21;93269.63;4856682;29;20053;-76
2022/10/30 06:09:32;;;;;;;9.75;2.85;;;;;;;12.84;71.78;93269.09;4858388;29;20105;-76
2022/10/30 06:12:19;;;;;;;17.38;2.78;;;;;;;12.90;71.79;93271.38;4844296;29;20072;-76
2022/10/30 06:15:05;;;;;;;10.80;2.30;;;;;;;12.99;71.40;93268.09;4841285;29;20050;-76
2022/10/30 06:17:31;;;;;;;12.35;2.85;;;;;;;13.25;70.97;93271.22;4827485;29;20033;-76
2022/10/30 06:20:12;;;;;;;11.38;2.45;;;;;;;13.69;69.98;93268.25;4872939;29;20049;-76
2022/10/30 06:23:01;;;;;;;21.25;4.45;;;;;;;14.23;67.76;93271.38;4844753;29;20057;-76
2022/10/30 06:25:37;;;;;;;11.30;2.55;;;;;;;14.69;67.09;93269.81;4859080;29;20068;-76
2022/10/30 06:28:18;;;;;;;9.68;2.60;;;;;;;15.05;64.61;93269.91;4843298;29;20411;-76
2022/10/30 06:30:44;;;;;;;16.88;2.80;;;;;;;15.24;63.37;93272.41;4872874;29;20045;-76
2022/10/30 06:33:10;;;;;;;10.15;2.55;;;;;;;15.50;62.20;93272.66;4858179;29;20128;-76
2022/10/30 06:35:38;;;;;;;10.82;2.70;;;;;;;15.84;61.05;93273.28;4862413;29;20264;-79
2022/10/30 06:38:04;;;;;;;12.90;2.90;;;;;;;16.51;59.50;93278.53;4862036;29;20033;-81
2022/10/30 06:40:31;;;;;;;16.27;2.97;;;;;;;17.18;56.75;93272.28;4855455;29;20053;-79
2022/10/30 06:43:15;;;;;;;11.43;2.53;;;;;;;17.58;55.30;93272.19;4853307;29;20073;-79
2022/10/30 06:45:47;;;;;;;10.50;2.47;;;;;;;17.56;54.69;93276.22;4844620;29;20062;-79
2022/10/30 06:48:13;;;;;;;20.88;2.42;;;;;;;17.64;54.48;93278.88;4852782;29;20038;-81
2022/10/30 06:50:42;;;;;;;9.15;2.20;;;;;;;17.74;53.89;93277.78;4857874;29;20507;-79
2022/10/30 06:53:08;;;;;;;15.70;3.30;;;;;;;17.67;54.76;93273.00;4854342;29;20114;-80
2022/10/30 06:55:34;;;;;;;13.07;2.25;;;;;;;17.65;54.53;93277.00;4845847;29;20069;-78
2022/10/30 06:58:13;;;;;;;11.73;2.67;;;;;;;18.09;54.58;93281.25;4873650;29;20045;-80
2022/10/30 07:00:46;;;;;;;11.35;2.63;;;;;;;18.34;53.59;93289.50;4857792;29;20090;-83
2022/10/30 07:03:43;;;;;;;13.48;3.03;;;;;;;18.86;52.40;93289.38;4823280;29;20038;-81
2022/10/30 07:06:09;;;;;;;14.90;2.40;;;;;;;18.98;51.88;93295.88;4829288;29;20050;-81
2022/10/30 07:08:35;;;;;;;10.73;2.67;;;;;;;19.24;51.66;93287.81;4846994;29;20085;-82
2022/10/30 07:11:01;;;;;;;11.27;2.22;;;;;;;19.76;50.30;93292.84;4855306;29;20046;-82
2022/10/30 07:13:55;;;;;;;15.55;3.05;;;;;;;20.32;48.76;93292.53;4850401;29;20050;-82
2022/10/30 07:16:31;;;;;;;11.93;2.63;;;;;;;21.20;47.48;93290.53;4865238;29;20072;-82
2022/10/30 07:18:58;;;;;;;14.77;3.22;;;;;;;21.97;46.42;93297.78;4860638;29;20041;-82
2022/10/30 07:21:25;;;;;;;15.60;2.67;;;;;;;22.39;44.63;93292.88;4848940;29;20057;-81
2022/10/30 07:23:57;;;;;;;13.07;2.50;;;;;;;22.78;43.41;93297.69;4854864;29;20041;-82
2022/10/30 07:26:36;;;;;;;18.27;2.50;;;;;;;22.99;42.75;93303.63;4857297;29;20046;-82
2022/10/30 07:29:11;;;;;;;15.35;2.95;;;;;;;23.44;41.86;93296.25;4848456;29;20037;-82
2022/10/30 07:31:48;;;;;;;13.82;3.50;;;;;;;23.68;41.34;93297.94;4864843;29;20045;-82
2022/10/30 07:34:34;;;;;;;11.32;2.58;;;;;;;24.07;41.35;93300.69;4855918;29;20049;-82
2022/10/30 07:37:18;;;;;;;11.73;2.80;;;;;;;24.53;39.75;93292.84;4857301;29;20105;-83
2022/10/30 07:39:49;;;;;;;17.23;3.17;;;;;;;24.20;40.27;93299.44;4855226;29;20057;-83
2022/10/30 07:42:21;;;;;;;14.35;2.80;;;;;;;24.22;40.90;93297.19;4855393;29;20045;-78
2022/10/30 07:45:06;;;;;;;11.85;2.50;;;;;;;24.67;39.61;93306.47;4853244;29;20056;-78
2022/10/30 07:47:58;;;;;;;11.30;2.80;;;;;;;25.19;39.68;93303.59;4844321;29;20069;-78
2022/10/30 07:50:33;;;;;;;10.52;2.92;;;;;;;25.51;40.23;93304.88;4867600;29;20040;-78
2022/10/30 07:52:59;;;;;;;11.75;2.80;;;;;;;25.37;39.66;93303.88;4864704;29;20045;-78
2022/10/30 07:55:27;;;;;;;16.70;3.08;;;;;;;25.00;41.54;93307.84;4866482;29;20044;-78
2022/10/30 07:58:16;;;;;;;13.18;2.92;;;;;;;25.05;39.96;93298.72;4868983;29;20057;-78
2022/10/30 08:01:02;;;;;;;16.80;2.65;;;;;;;25.22;40.21;93302.84;4867146;29;20088;-78
2022/10/30 08:03:30;;;;;;;16.30;2.47;;;;;;;25.33;40.36;93311.84;4881177;29;20519;-78
2022/10/30 08:06:03;;;;;;;15.35;2.92;;;;;;;25.44;38.51;93310.09;4881656;29;20037;-79
2022/10/30 08:08:36;;;;;;;19.00;2.78;;;;;;;25.34;37.78;93308.81;4851417;29;20049;-78
2022/10/30 08:11:24;;;;;;;14.15;3.45;;;;;;;25.36;37.15;93319.19;4866568;29;20093;-78
2022/10/30 08:13:51;;;;;;;15.52;3.22;;;;;;;25.86;36.70;93321.81;4865620;29;20140;-78
2022/10/30 08:16:17;;;;;;;14.07;2.60;;;;;;;26.71;33.98;93319.50;4862144;29;20038;-78
2022/10/30 08:18:43;;;;;;;10.23;2.85;;;;;;;26.88;34.16;93312.75;4847823;29;20037;-78
2022/10/30 08:21:09;;;;;;;12.50;2.75;;;;;;;26.67;35.78;93309.84;4849672;29;20038;-79
2022/10/30 08:23:39;;;;;;;18.25;4.28;;;;;;;26.15;35.19;93310.38;4847811;29;20034;-78
2022/10/30 08:26:10;;;;;;;14.75;3.55;;;;;;;26.48;36.07;93311.53;4848939;29;20137;-78
2022/10/30 08:28:36;;;;;;;12.20;2.75;;;;;;;26.16;34.70;93309.25;4859255;29;20500;-78
2022/10/30 08:31:04;;;;;;;12.70;3.08;;;;;;;26.19;35.51;93310.41;4881965;29;20033;-78
2022/10/30 08:33:50;;;;;;;10.85;3.15;;;;;;;25.93;38.65;93306.63;4867332;29;20109;-78
2022/10/30 08:36:39;;;;;;;17.75;3.45;;;;;;;25.75;35.36;93314.38;4862408;29;20390;-78
2022/10/30 08:39:04;;;;;;;14.73;3.10;;;;;;;25.38;38.15;93308.88;4850879;29;20066;-78
2022/10/30 08:41:40;;;;;;;14.95;3.25;;;;;;;25.96;38.47;93311.28;4865055;29;20120;-78
2022/10/30 08:44:07;;;;;;;17.00;3.33;;;;;;;25.83;38.91;93306.47;4865192;29;20449;-78
2022/10/30 08:46:52;;;;;;;12.40;3.80;;;;;;;25.95;38.08;93300.91;4848442;29;20080;-79
2022/10/30 08:49:18;;;;;;;15.38;3.05;;;;;;;25.99;37.43;93306.34;4847109;29;20073;-78
2022/10/30 08:51:51;;;;;;;17.90;2.78;;;;;;;25.20;38.21;93305.91;4847095;29;20038;-78
2022/10/30 08:54:17;;;;;;;17.83;3.20;;;;;;;25.27;38.55;93299.91;4850631;29;20080;-78
2022/10/30 08:56:42;;;;;;;18.50;3.42;;;;;;;25.34;37.97;93300.75;4831900;29;20532;-79
2022/10/30 08:59:11;;;;;;;17.75;3.45;;;;;;;25.49;38.99;93296.41;4847295;29;20050;-78
2022/10/30 09:01:37;;;;;;;14.13;3.03;;;;;;;25.27;38.83;93307.94;4865935;29;20105;-78
2022/10/30 09:04:17;;;;;;;21.70;3.50;;;;;;;25.17;38.93;93301.22;4867188;29;20049;-78
2022/10/30 09:06:43;;;;;;;15.68;3.28;;;;;;;25.09;39.72;93300.34;4865290;29;20038;-78
2022/10/30 09:09:30;;;;;;;20.10;4.05;;;;;;;24.99;40.07;93300.16;4865101;29;20045;-79
2022/10/30 09:11:59;;;;;;;16.65;3.13;;;;;;;25.13;38.44;93295.81;4880829;29;20041;-78
2022/10/30 09:14:25;;;;;;;17.92;3.55;;;;;;;24.96;38.64;93295.53;4881578;29;20033;-78
2022/10/30 09:16:51;;;;;;;19.25;2.95;;;;;;;25.40;39.30;93293.22;4880827;29;20131;-78
2022/10/30 09:19:19;;;;;;;14.23;3.15;;;;;;;25.35;39.00;93298.84;4865624;29;20041;-78
2022/10/30 09:21:46;;;;;;;14.85;3.40;;;;;;;25.65;37.99;93298.19;4880271;29;20062;-78
2022/10/30 09:24:11;;;;;;;24.20;3.88;;;;;;;24.83;39.15;93300.25;4849403;29;20148;-78
2022/10/30 09:26:37;;;;;;;11.30;2.70;;;;;;;24.46;37.74;93295.38;4865706;29;20053;-78
2022/10/30 09:29:17;;;;;;;15.27;3.55;;;;;;;24.35;38.72;93294.38;4879267;29;20060;-78
2022/10/30 09:31:58;;;;;;;13.45;3.35;;;;;;;24.96;39.76;93300.88;4849603;29;20046;-78
2022/10/30 09:34:26;;;;;;;17.55;3.92;;;;;;;25.02;37.36;93294.88;4846805;29;20042;-78
2022/10/30 09:37:11;;;;;;;12.82;3.13;;;;;;;25.76;36.21;93288.38;4861178;29;20044;-78
2022/10/30 09:39:37;;;;;;;15.15;3.45;;;;;;;26.31;36.53;93298.69;4849337;29;20162;-79
2022/10/30 09:42:32;;;;;;;11.30;2.90;;;;;;;26.69;36.63;93297.59;4864722;29;20344;-78
2022/10/30 09:45:21;;;;;;;13.90;3.30;;;;;;;26.75;36.54;93292.66;4864360;29;20054;-79
2022/10/30 09:48:10;;;;;;;16.63;3.22;;;;;;;26.49;37.15;93301.56;4863822;29;20177;-78
2022/10/30 09:51:08;;;;;;;16.83;3.33;;;;;;;25.73;39.74;93299.81;4842760;29;20134;-78
2022/10/30 09:53:48;;;;;;;11.48;3.28;;;;;;;25.86;38.89;93305.75;4864586;29;20377;-78
2022/10/30 09:56:24;;;;;;;14.00;3.15;;;;;;;25.84;38.43;93292.69;4879957;29;20042;-78
2022/10/30 09:59:12;;;;;;;19.13;3.40;;;;;;;25.63;39.75;93301.22;4849511;29;20058;-78
2022/10/30 10:01:53;;;;;;;18.60;3.45;;;;;;;25.35;38.45;93304.22;4880251;29;20045;-78
2022/10/30 10:04:27;;;;;;;15.82;3.28;;;;;;;25.09;39.85;93299.56;4865546;29;20046;-78
2022/10/30 10:07:10;;;;;;;21.48;3.85;;;;;;;24.84;40.98;93294.56;4865384;29;20584;-78
2022/10/30 10:10:02;;;;;;;15.63;3.58;;;;;;;24.43;40.93;93290.69;4877251;29;20047;-79
2022/10/30 10:12:52;;;;;;;10.05;2.83;;;;;;;24.45;39.42;93301.84;4879766;29;20033;-78
2022/10/30 10:15:33;;;;;;;15.48;3.72;;;;;;;24.52;38.71;93299.34;4865137;29;20050;-78
2022/10/30 10:18:03;;;;;;;13.73;3.05;;;;;;;24.43;39.88;93296.06;4865679;29;20095;-79
2022/10/30 10:20:36;;;;;;;16.58;3.85;;;;;;;24.52;40.15;93291.31;4865376;29;20465;-78
2022/10/30 10:23:25;;;;;;;13.05;3.55;;;;;;;24.67;40.14;93293.09;4865156;29;20033;-78
2022/10/30 10:25:53;;;;;;;16.27;3.83;;;;;;;24.45;42.55;93291.94;4865822;29;20069;-79
2022/10/30 10:28:58;;;;;;;13.70;3.33;;;;;;;24.57;40.91;93296.38;4880543;29;20049;-79
2022/10/30 10:31:38;;;;;;;17.05;3.25;;;;;;;24.79;40.67;93296.75;4879356;29;20041;-79
2022/10/30 10:34:09;;;;;;;20.88;3.65;;;;;;;24.77;40.44;93288.28;4865787;29;20368;-79
2022/10/30 10:36:44;;;;;;;16.83;3.45;;;;;;;24.87;40.75;93283.13;4865056;29;20048;-79
2022/10/30 10:39:37;;;;;;;14.65;3.28;;;;;;;25.16;40.29;93288.19;4865681;29;20130;-79
2022/10/30 10:42:25;;;;;;;20.35;3.30;;;;;;;25.09;40.09;93291.53;4865955;29;20055;-79
2022/10/30 10:45:31;;;;;;;21.13;3.40;;;;;;;24.96;39.51;93288.25;4878635;29;20415;-79
2022/10/30 10:48:23;;;;;;;16.17;3.53;;;;;;;24.89;40.28;93291.59;4845810;29;20045;-79
2022/10/30 10:50:53;;;;;;;13.30;2.90;;;;;;;24.68;39.53;93291.22;4846861;29;20049;-79
2022/10/30 10:53:27;;;;;;;13.30;2.85;;;;;;;24.84;39.14;93286.53;4846019;29;20044;-79
2022/10/30 10:55:57;;;;;;;18.08;3.42;;;;;;;25.00;39.48;93288.31;4860755;29;20034;-79
2022/10/30 10:58:30;;;;;;;16.08;3.67;;;;;;;25.12;39.29;93283.53;4865131;29;20041;-79
2022/10/30 11:01:00;;;;;;;13.55;3.50;;;;;;;25.23;40.25;93283.75;4879491;29;20110;-79
2022/10/30 11:03:48;;;;;;;17.98;3.15;;;;;;;25.55;38.29;93283.47;4848835;29;20344;-79
2022/10/30 11:06:22;;;;;;;19.38;4.55;;;;;;;25.22;38.64;93276.84;4845775;29;20046;-79
2022/10/30 11:08:49;;;;;;;16.10;3.58;;;;;;;25.12;40.46;93272.81;4847179;29;20045;-79
2022/10/30 11:11:14;;;;;;;12.02;3.42;;;;;;;24.98;39.94;93277.97;4846445;29;20520;-78
2022/10/30 11:13:44;;;;;;;19.20;4.22;;;;;;;25.09;40.77;93273.56;4862583;29;20053;-79
2022/10/30 11:16:37;;;;;;;20.73;3.50;;;;;;;24.99;40.79;93274.13;4852483;29;20030;-79
2022/10/30 11:19:06;;;;;;;15.23;3.45;;;;;;;24.82;40.43;93266.59;4865579;29;20460;-78
2022/10/30 11:21:42;;;;;;;19.20;3.40;;;;;;;24.77;41.78;93267.66;4864444;29;20045;-79
2022/10/30 11:24:26;;;;;;;15.32;4.22;;;;;;;24.54;40.50;93264.19;4865898;29;20037;-79
2022/10/30 11:26:53;;;;;;;14.55;3.42;;;;;;;24.61;40.69;93262.44;4865501;29;20556;-78
2022/10/30 11:29:23;;;;;;;18.85;2.95;;;;;;;24.51;41.38;93261.09;4865550;29;20493;-79
2022/10/30 11:32:00;;;;;;;20.05;3.72;;;;;;;24.21;39.38;93262.78;4865722;29;20392;-79
2022/10/30 11:34:33;;;;;;;15.73;3.33;;;;;;;24.01;40.25;93264.69;4864669;29;20510;-79
2022/10/30 11:36:59;;;;;;;15.02;3.30;;;;;;;23.84;40.32;93261.28;4865031;29;20112;-79
2022/10/30 11:39:31;;;;;;;15.73;2.90;;;;;;;23.72;41.30;93264.06;4880416;29;20097;-79
2022/10/30 11:42:25;;;;;;;17.42;3.30;;;;;;;23.38;42.76;93255.69;4864352;29;20037;-78
2022/10/30 11:44:50;;;;;;;13.80;2.97;;;;;;;23.42;42.21;93256.53;4862040;29;20137;-78
2022/10/30 11:47:21;;;;;;;16.73;3.88;;;;;;;23.70;40.84;93248.34;4879831;29;20065;-78
2022/10/30 11:49:53;;;;;;;20.83;3.63;;;;;;;23.66;40.68;93250.19;4865329;29;20030;-79